Plymouth, WI (53073)

6:53 AM CST on February 25, 2017 (GMT -0600)
Selma St. in City of Plymouth, WI | | Change Station

Elev 896 ft 43.75 °N, 87.97 °W | Updated 2 minutes ago

Snow
Snow
18.4 °F
Feels Like 18 °F
N
0.0
Wind Variable Wind from NW
Gusts 0.0 mph

Today
High -- | Low -- °F
--% Chance of Precip.
Yesterday
High -- | Low -- °F
Precip. -- in
Pressure 29.63 in
Visibility 1.8 miles
Clouds Overcast 2800 ft
Windchill 18 °F
Dew Point 17 °F
Humidity 92%
Rainfall 0.00 in
Snow Depth Not available.
6:34 AM 5:35 PM
Waning Crescent, 1% visible
SPECI KSBM 251218Z AUTO 30014KT 1 3/4SM -SN OVC028 M07/M09 A2963 RMK AO2 P0000 T10671094
Pressure 29.63 in
Visibility 1.8 miles
Clouds Overcast 2800 ft
Windchill 18 °F
Dew Point 17 °F
Humidity 92%
Rainfall 0.00 in
Snow Depth Not available.
6:34 AM 5:35 PM
Waning Crescent, 1% visible
SPECI KSBM 251218Z AUTO 30014KT 1 3/4SM -SN OVC028 M07/M09 A2963 RMK AO2 P0000 T10671094

Get Your Daily Forecast Email!

Thanks for signing up!

Be on the lookout for a verification email in your inbox.

You'll start receiving the daily forecast at 8 AM.

×

10-Day Weather Forecast

Almanac

Astronomy

Feb. 25, 2017 Rise Set
Actual Time
Civil Twilight
Nautical Twilight
Astronomical Twilight
Moon
Length of Visible Light
Length of Day
Tomorrow will be .
, % of the Moon is Illuminated

Today's Extremes

State Highs State Lows

Community

WunderPhotos

Upload Photos

1,962,540 photos uploaded!

WunderBlog® & News

Nearby

Air Quality

  Air Quality AQ Index Pollutant
Not available.

Snow Depth

Station Depth Elevation

Earthquake Activity

City Distance Mag. Time & Date
Minimum magnitude displayed is 2.5.

Coastal Water Temperatures

Place Temperature

Stations

Nearby Weather Stations

Station Location Temp. Windchill Dew Point Humidity Wind Precip. Elev Updated Type
                   

Watches & Warnings

There are currently no watches in effect.